Time;durP1;ratioP1;P1;durP2;ratioP2;P2;SDS_P1;SDS_P2;PMS_P1;PMS_P2;Temp;Humidity;BMP_temperature;BMP_pressure;BME280_temperature;BME280_humidity;BME280_pressure;Samples;Min_cycle;Max_cycle;Signal;HPM_P1;HPM_P2
2023/01/19 00:00:27;;;;;;;7.13;2.17;;;2.20;99.90;;;;;;5071544;28;20180;-57
2023/01/19 00:02:53;;;;;;;6.23;2.40;;;2.40;99.90;;;;;;5054135;28;20583;-57
2023/01/19 00:05:19;;;;;;;4.03;2.13;;;2.20;99.90;;;;;;5053807;28;20200;-57
2023/01/19 00:07:45;;;;;;;7.47;2.20;;;2.20;99.90;;;;;;5071335;28;20208;-57
2023/01/19 00:10:11;;;;;;;4.67;2.30;;;2.10;99.90;;;;;;5071500;28;20606;-57
2023/01/19 00:12:37;;;;;;;6.33;2.57;;;2.10;99.90;;;;;;5071318;28;20234;-59
2023/01/19 00:15:03;;;;;;;6.40;2.13;;;2.20;99.90;;;;;;5071560;28;20177;-58
2023/01/19 00:17:29;;;;;;;5.37;2.10;;;;;;;;;;5071537;28;20223;-58
2023/01/19 00:19:55;;;;;;;5.80;2.20;;;;;;;;;;5071344;28;20766;-58
2023/01/19 00:22:20;;;;;;;5.00;2.10;;;1.90;99.90;;;;;;5071385;28;20169;-58
2023/01/19 00:24:46;;;;;;;7.50;2.87;;;2.10;99.90;;;;;;5071247;28;20509;-58
2023/01/19 00:27:12;;;;;;;4.20;2.30;;;2.40;99.90;;;;;;5064282;28;20216;-58
2023/01/19 00:29:38;;;;;;;5.73;2.17;;;;;;;;;;5067951;28;20173;-58
2023/01/19 00:32:04;;;;;;;4.37;2.20;;;2.20;99.90;;;;;;5064666;28;20195;-58
2023/01/19 00:34:35;;;;;;;3.77;2.10;;;;;;;;;;5069546;28;20326;-58
2023/01/19 00:37:05;;;;;;;4.10;2.07;;;2.70;99.90;;;;;;5071330;28;20200;-58
2023/01/19 00:39:31;;;;;;;7.33;2.83;;;2.10;99.90;;;;;;5053671;28;20177;-58
2023/01/19 00:44:41;;;;;;;9.07;2.57;;;2.00;99.90;;;;;;5071064;28;20188;-58
2023/01/19 00:47:07;;;;;;;10.43;3.00;;;2.00;99.90;;;;;;5070693;28;20216;-58
2023/01/19 00:49:32;;;;;;;12.97;3.33;;;2.10;99.90;;;;;;5070717;28;20169;-58
2023/01/19 00:51:58;;;;;;;13.13;4.13;;;1.90;99.90;;;;;;5071036;28;20569;-58
2023/01/19 00:54:23;;;;;;;10.83;4.30;;;2.00;99.90;;;;;;5070921;28;20252;-58
2023/01/19 00:56:49;;;;;;;13.93;4.83;;;2.00;99.90;;;;;;5071009;28;20180;-58
2023/01/19 00:59:15;;;;;;;7.07;4.40;;;2.00;99.90;;;;;;5070703;28;20184;-58
2023/01/19 01:01:41;;;;;;;12.67;5.20;;;2.00;99.90;;;;;;5070676;28;20187;-58
2023/01/19 01:04:06;;;;;;;10.40;5.40;;;;;;;;;;5070630;28;20177;-58
2023/01/19 01:06:32;;;;;;;10.97;5.70;;;1.90;99.90;;;;;;5070472;28;20283;-58
2023/01/19 01:08:58;;;;;;;13.40;5.83;;;2.10;99.90;;;;;;5070300;28;20259;-58
2023/01/19 01:11:23;;;;;;;12.43;5.93;;;1.90;99.90;;;;;;5070505;28;20681;-58
2023/01/19 01:13:49;;;;;;;11.63;5.77;;;1.90;99.90;;;;;;5070410;28;20543;-57
2023/01/19 01:16:15;;;;;;;11.37;5.83;;;2.20;99.90;;;;;;5070274;28;20217;-57
2023/01/19 01:18:42;;;;;;;10.43;5.67;;;1.90;99.90;;;;;;5070325;28;20232;-58
2023/01/19 01:21:08;;;;;;;14.17;5.87;;;1.90;99.90;;;;;;5070875;28;20191;-58
2023/01/19 01:23:34;;;;;;;13.13;5.93;;;1.90;99.90;;;;;;5070625;28;20187;-57
2023/01/19 01:25:59;;;;;;;12.63;5.63;;;1.70;99.90;;;;;;5069912;28;20177;-57
2023/01/19 01:28:25;;;;;;;15.57;5.57;;;1.80;99.90;;;;;;5070150;28;20251;-58
2023/01/19 01:30:55;;;;;;;11.63;5.33;;;1.80;99.90;;;;;;5069596;28;20180;-58
2023/01/19 01:33:22;;;;;;;14.27;5.27;;;1.70;99.90;;;;;;5069852;28;20245;-58
2023/01/19 01:35:48;;;;;;;13.77;6.00;;;1.90;99.90;;;;;;5069474;28;20169;-58
2023/01/19 01:38:15;;;;;;;11.27;5.77;;;1.70;99.90;;;;;;5069361;28;20176;-58
2023/01/19 01:40:41;;;;;;;11.03;5.87;;;1.80;99.90;;;;;;5069316;28;20604;-58
2023/01/19 01:43:14;;;;;;;11.17;5.47;;;1.60;99.90;;;;;;5070118;28;20226;-57
2023/01/19 01:45:41;;;;;;;10.07;5.60;;;1.60;99.90;;;;;;5049605;28;20170;-57
2023/01/19 01:48:16;;;;;;;10.77;5.37;;;1.40;99.90;;;;;;5050425;28;20205;-58
2023/01/19 01:53:37;;;;;;;9.27;5.70;;;1.50;99.90;;;;;;5050652;28;20180;-57
2023/01/19 01:56:16;;;;;;;9.20;6.07;;;1.50;99.90;;;;;;5050364;28;20208;-58
2023/01/19 01:58:43;;;;;;;11.97;6.37;;;1.50;99.90;;;;;;5050345;28;20183;-58
2023/01/19 02:03:53;;;;;;;12.47;6.20;;;1.50;99.90;;;;;;5074579;28;20199;-56
2023/01/19 02:06:21;;;;;;;12.83;6.80;;;1.40;99.90;;;;;;5073941;28;20196;-57
2023/01/19 02:14:30;;;;;;;11.30;6.77;;;-0.30;99.90;;;;;;5074102;28;20317;-57
2023/01/19 02:16:56;;;;;;;15.83;6.90;;;1.10;99.90;;;;;;5073647;28;20601;-57
2023/01/19 02:19:29;;;;;;;11.37;6.57;;;1.30;99.90;;;;;;5073724;28;20718;-57
2023/01/19 02:22:09;;;;;;;7.93;5.40;;;1.30;99.90;;;;;;5055755;28;20187;-57
2023/01/19 02:24:35;;;;;;;18.37;7.10;;;0.70;99.90;;;;;;5072444;28;20165;-57
2023/01/19 02:27:01;;;;;;;12.27;6.57;;;1.20;99.90;;;;;;5073327;28;20699;-57
2023/01/19 02:29:27;;;;;;;11.17;6.90;;;1.40;99.90;;;;;;5071961;28;20262;-57
2023/01/19 02:31:55;;;;;;;15.63;6.33;;;1.20;99.90;;;;;;5072672;28;20176;-57
2023/01/19 02:34:21;;;;;;;14.47;7.60;;;1.70;99.90;;;;;;5072644;28;20175;-57
2023/01/19 02:36:57;;;;;;;14.37;7.37;;;1.20;99.90;;;;;;5068330;28;20223;-57
2023/01/19 02:39:29;;;;;;;11.63;5.87;;;1.30;99.90;;;;;;5070819;28;20215;-57
2023/01/19 02:42:01;;;;;;;17.60;6.83;;;1.20;99.90;;;;;;5073065;28;20248;-57
2023/01/19 02:44:29;;;;;;;13.33;7.30;;;1.00;99.90;;;;;;5073263;28;20184;-57
2023/01/19 02:46:55;;;;;;;12.97;6.40;;;1.10;99.90;;;;;;5073251;28;20213;-57
2023/01/19 02:49:22;;;;;;;12.60;6.97;;;0.90;99.90;;;;;;5073382;28;20200;-57
2023/01/19 02:51:47;;;;;;;12.57;6.20;;;0.90;99.90;;;;;;5073296;28;20184;-57
2023/01/19 02:54:26;;;;;;;11.60;5.83;;;1.00;99.90;;;;;;5073033;28;20200;-57
2023/01/19 02:57:09;;;;;;;16.30;7.00;;;1.30;99.90;;;;;;5073133;28;20180;-57
2023/01/19 03:00:01;;;;;;;11.17;6.50;;;1.10;99.90;;;;;;5073056;28;20176;-57
2023/01/19 03:02:32;;;;;;;11.80;5.60;;;1.10;99.90;;;;;;5072664;28;20291;-56
2023/01/19 03:05:14;;;;;;;9.03;4.90;;;1.20;99.90;;;;;;5073068;28;20840;-56
2023/01/19 03:07:43;;;;;;;14.40;5.50;;;1.70;99.90;;;;;;5072576;28;20251;-56
2023/01/19 03:10:25;;;;;;;13.93;6.27;;;1.00;99.90;;;;;;5072696;28;20177;-56
2023/01/19 03:13:12;;;;;;;16.00;5.43;;;1.10;99.90;;;;;;5071694;28;20180;-56
2023/01/19 03:16:00;;;;;;;11.07;5.00;;;1.20;99.90;;;;;;5072737;28;20757;-56
2023/01/19 03:18:30;;;;;;;11.13;4.33;;;1.20;99.90;;;;;;5072409;28;20200;-56
2023/01/19 03:21:00;;;;;;;9.20;4.33;;;1.20;99.90;;;;;;5072352;28;20199;-56
2023/01/19 03:23:30;;;;;;;10.77;5.33;;;1.10;99.90;;;;;;5072706;28;20192;-56
2023/01/19 03:25:58;;;;;;;10.53;4.50;;;1.00;99.90;;;;;;5072042;28;20262;-56
2023/01/19 03:28:26;;;;;;;9.43;4.83;;;1.20;99.90;;;;;;5072554;28;20223;-56
2023/01/19 03:30:57;;;;;;;8.63;4.70;;;1.00;99.90;;;;;;5071382;28;20176;-56
2023/01/19 03:33:27;;;;;;;9.53;3.83;;;1.00;99.90;;;;;;5070106;28;20230;-56
2023/01/19 03:36:02;;;;;;;10.67;3.50;;;1.10;99.90;;;;;;5071012;28;20177;-56
2023/01/19 03:38:33;;;;;;;10.07;3.80;;;1.10;99.90;;;;;;5070297;28;20277;-56
2023/01/19 03:41:03;;;;;;;8.93;3.30;;;1.00;99.90;;;;;;5071568;28;20227;-55
2023/01/19 03:43:31;;;;;;;8.53;3.53;;;1.00;99.90;;;;;;5072412;28;20169;-56
2023/01/19 03:45:57;;;;;;;5.80;3.60;;;1.10;99.90;;;;;;5072369;28;20168;-55
2023/01/19 03:48:23;;;;;;;7.57;3.57;;;1.10;99.90;;;;;;5072310;28;20208;-56
2023/01/19 03:50:50;;;;;;;9.63;3.77;;;1.40;99.90;;;;;;5072229;28;20226;-56
2023/01/19 03:53:16;;;;;;;14.90;4.17;;;0.90;99.90;;;;;;5072312;28;20234;-59
2023/01/19 03:55:45;;;;;;;9.70;4.03;;;1.10;99.90;;;;;;5072254;28;20177;-57
2023/01/19 03:58:11;;;;;;;9.37;3.67;;;1.10;99.90;;;;;;5071802;28;20179;-57
2023/01/19 04:00:38;;;;;;;7.60;3.27;;;1.10;99.90;;;;;;5071857;28;20557;-57
2023/01/19 04:03:05;;;;;;;7.57;3.87;;;1.00;99.90;;;;;;5071774;28;20172;-57
2023/01/19 04:05:31;;;;;;;7.27;3.47;;;;;;;;;;5071912;28;20181;-57
2023/01/19 04:07:57;;;;;;;10.47;4.20;;;1.00;99.90;;;;;;5071586;28;20345;-57
2023/01/19 04:10:23;;;;;;;7.50;4.20;;;0.80;99.90;;;;;;5071282;28;20184;-56
2023/01/19 04:12:56;;;;;;;11.47;4.47;;;1.00;99.90;;;;;;5070722;28;20195;-56
2023/01/19 04:15:21;;;;;;;11.00;4.57;;;1.00;99.90;;;;;;5071530;28;20645;-57
2023/01/19 04:17:47;;;;;;;8.50;4.63;;;0.90;99.90;;;;;;5071115;28;20260;-57
2023/01/19 04:20:13;;;;;;;11.20;4.00;;;1.00;99.90;;;;;;5071274;28;20224;-57
2023/01/19 04:22:38;;;;;;;11.43;5.10;;;0.90;99.90;;;;;;5071183;28;20251;-57
2023/01/19 04:25:05;;;;;;;9.37;3.60;;;1.00;99.90;;;;;;5070484;28;20173;-57
2023/01/19 04:27:31;;;;;;;12.90;4.07;;;1.00;99.90;;;;;;5071506;28;20224;-55
2023/01/19 04:29:56;;;;;;;8.57;3.77;;;1.00;99.90;;;;;;5071033;28;20175;-57
2023/01/19 04:32:22;;;;;;;9.50;3.60;;;1.00;99.90;;;;;;5071210;28;20666;-57
2023/01/19 04:34:47;;;;;;;10.87;3.90;;;0.90;99.90;;;;;;5070682;28;20168;-57
2023/01/19 04:37:13;;;;;;;12.77;4.10;;;1.00;99.90;;;;;;5071068;28;20598;-57
2023/01/19 04:39:39;;;;;;;9.43;4.67;;;1.20;99.90;;;;;;5071016;28;20180;-57
2023/01/19 04:42:05;;;;;;;8.37;3.97;;;1.00;99.90;;;;;;5066774;28;20994;-56
2023/01/19 04:44:30;;;;;;;8.87;3.97;;;1.30;99.90;;;;;;5069343;28;20207;-57
2023/01/19 04:46:56;;;;;;;14.33;4.03;;;1.00;99.90;;;;;;5057172;28;20663;-57
2023/01/19 04:49:22;;;;;;;9.83;3.70;;;1.00;99.90;;;;;;5061225;28;20184;-56
2023/01/19 04:51:48;;;;;;;7.30;3.20;;;1.00;99.90;;;;;;5069929;28;20176;-57
2023/01/19 04:54:13;;;;;;;7.57;3.40;;;0.90;99.90;;;;;;5069480;28;20548;-57
2023/01/19 04:56:39;;;;;;;7.60;3.20;;;1.00;99.90;;;;;;5069856;28;20699;-57
2023/01/19 04:59:05;;;;;;;6.10;3.40;;;1.10;99.90;;;;;;5070866;28;20188;-57
2023/01/19 05:01:31;;;;;;;6.63;3.50;;;1.10;99.90;;;;;;5069766;28;20534;-57
2023/01/19 05:04:00;;;;;;;8.53;3.50;;;1.10;99.90;;;;;;5070295;28;20255;-57
2023/01/19 05:06:26;;;;;;;7.90;3.63;;;1.10;99.90;;;;;;5070131;28;20253;-57
2023/01/19 05:08:52;;;;;;;9.47;4.47;;;1.10;99.90;;;;;;5069863;28;20183;-57
2023/01/19 05:11:17;;;;;;;9.33;4.40;;;1.10;99.90;;;;;;5070428;28;20157;-57
2023/01/19 05:13:43;;;;;;;7.97;3.90;;;1.20;99.90;;;;;;5068622;28;20651;-57
2023/01/19 05:16:09;;;;;;;8.03;3.23;;;;;;;;;;5052285;28;20173;-56
2023/01/19 05:18:35;;;;;;;5.83;2.77;;;1.40;99.90;;;;;;5069852;28;20235;-56
2023/01/19 05:21:03;;;;;;;5.60;2.57;;;1.30;99.90;;;;;;5070288;28;20728;-56
2023/01/19 05:23:30;;;;;;;7.33;2.73;;;1.30;99.90;;;;;;5070759;28;20242;-56
2023/01/19 05:25:56;;;;;;;8.07;2.33;;;1.40;99.90;;;;;;5070392;28;20165;-56
2023/01/19 05:28:22;;;;;;;7.93;2.70;;;1.50;99.90;;;;;;5070424;28;20337;-56
2023/01/19 05:30:50;;;;;;;6.80;3.20;;;1.20;99.90;;;;;;5070597;28;20651;-56
2023/01/19 05:33:16;;;;;;;11.97;3.60;;;1.30;99.90;;;;;;5052509;28;20588;-56
2023/01/19 05:35:42;;;;;;;8.03;3.33;;;1.30;99.90;;;;;;5070370;28;20172;-57
2023/01/19 05:38:08;;;;;;;8.07;3.33;;;1.00;99.90;;;;;;5069336;28;20336;-57
2023/01/19 05:40:33;;;;;;;26.70;3.87;;;1.10;99.90;;;;;;5069406;28;20165;-56
2023/01/19 05:43:03;;;;;;;10.13;3.23;;;1.10;99.90;;;;;;5069129;28;20179;-57
2023/01/19 05:45:28;;;;;;;8.10;3.33;;;1.10;99.90;;;;;;5069590;28;20177;-57
2023/01/19 05:47:54;;;;;;;20.07;3.43;;;1.20;99.90;;;;;;5069524;28;20274;-56
2023/01/19 05:50:20;;;;;;;11.17;3.50;;;2.90;99.90;;;;;;5068831;28;20171;-56
2023/01/19 05:52:46;;;;;;;9.60;4.00;;;1.00;99.90;;;;;;5070455;28;20234;-56
2023/01/19 05:55:12;;;;;;;8.37;4.10;;;1.00;99.90;;;;;;5070276;28;20169;-57
2023/01/19 05:57:38;;;;;;;15.20;4.67;;;3.30;99.90;;;;;;5070369;28;20180;-57
2023/01/19 06:00:04;;;;;;;13.53;4.17;;;1.20;99.90;;;;;;5070429;28;20165;-57
2023/01/19 06:02:30;;;;;;;7.77;4.07;;;1.20;99.90;;;;;;5070184;28;20947;-57
2023/01/19 06:04:55;;;;;;;7.17;4.10;;;1.10;99.90;;;;;;5070081;28;20213;-57
2023/01/19 06:07:21;;;;;;;10.07;4.30;;;1.10;99.90;;;;;;5069420;28;20222;-58
2023/01/19 06:09:47;;;;;;;12.77;4.93;;;1.20;99.90;;;;;;5070096;28;20638;-58
2023/01/19 06:12:12;;;;;;;8.30;4.53;;;1.30;99.90;;;;;;5070014;28;20188;-58
2023/01/19 06:14:39;;;;;;;10.87;4.93;;;1.30;99.90;;;;;;5069599;28;20604;-58
2023/01/19 06:17:05;;;;;;;10.13;5.10;;;1.30;99.90;;;;;;5069935;28;20182;-58
2023/01/19 06:19:31;;;;;;;15.27;5.57;;;1.30;99.90;;;;;;5070015;28;20216;-58
2023/01/19 06:21:57;;;;;;;11.93;5.87;;;1.30;99.90;;;;;;5069791;28;20285;-58
2023/01/19 06:24:24;;;;;;;10.20;5.13;;;1.30;99.90;;;;;;5070054;28;20242;-58
2023/01/19 06:26:50;;;;;;;12.23;5.17;;;1.30;99.90;;;;;;5069465;28;20212;-58
2023/01/19 06:29:16;;;;;;;10.67;5.00;;;1.30;99.90;;;;;;5068381;28;20176;-57
2023/01/19 06:31:41;;;;;;;12.67;5.30;;;0.90;99.90;;;;;;5069794;28;20194;-58
2023/01/19 06:34:08;;;;;;;15.60;4.77;;;1.10;99.90;;;;;;5063422;28;20232;-57
2023/01/19 06:36:33;;;;;;;12.10;5.40;;;1.30;99.90;;;;;;5069708;28;20181;-58
2023/01/19 06:39:02;;;;;;;10.57;5.10;;;1.40;99.90;;;;;;5069580;28;20177;-57
2023/01/19 06:41:28;;;;;;;14.07;5.63;;;1.30;99.90;;;;;;5069788;28;20330;-57
2023/01/19 06:43:54;;;;;;;13.50;5.73;;;1.10;99.90;;;;;;5069697;28;20685;-57
2023/01/19 06:46:20;;;;;;;13.83;5.53;;;1.30;99.90;;;;;;5069718;28;20176;-57
2023/01/19 06:48:45;;;;;;;13.20;5.77;;;1.20;99.90;;;;;;5073220;28;20184;-57
2023/01/19 06:51:11;;;;;;;11.23;5.63;;;1.30;99.90;;;;;;5072945;28;20178;-58
2023/01/19 06:53:37;;;;;;;13.60;6.00;;;1.10;99.90;;;;;;5073145;28;20177;-57
2023/01/19 06:56:03;;;;;;;11.93;5.77;;;1.40;99.90;;;;;;5073259;28;20299;-57
2023/01/19 06:58:30;;;;;;;13.97;6.57;;;1.30;99.90;;;;;;5072818;28;20177;-57
2023/01/19 07:01:01;;;;;;;15.47;6.53;;;1.40;99.90;;;;;;5073111;28;20184;-57
2023/01/19 07:03:26;;;;;;;15.73;6.73;;;1.50;99.90;;;;;;5072645;28;20188;-57
2023/01/19 07:05:52;;;;;;;16.00;5.90;;;4.10;99.90;;;;;;5073251;28;20168;-57
2023/01/19 07:08:18;;;;;;;15.17;6.00;;;1.40;99.90;;;;;;5072208;28;20204;-59
2023/01/19 07:10:44;;;;;;;21.63;6.23;;;1.30;99.90;;;;;;5072802;28;20222;-60
2023/01/19 07:13:10;;;;;;;15.50;5.73;;;1.40;99.90;;;;;;5072689;28;20175;-60
2023/01/19 07:15:36;;;;;;;14.27;6.30;;;1.30;99.90;;;;;;5072561;28;20173;-60
2023/01/19 07:18:06;;;;;;;13.93;6.60;;;1.30;99.90;;;;;;5069279;28;20218;-60
2023/01/19 07:20:36;;;;;;;13.43;6.27;;;1.30;99.90;;;;;;5069195;28;20214;-60
2023/01/19 07:23:01;;;;;;;16.90;5.70;;;1.20;99.90;;;;;;5070252;28;20175;-59
2023/01/19 07:25:28;;;;;;;13.83;5.40;;;1.30;99.90;;;;;;5072204;28;20530;-59
2023/01/19 07:28:00;;;;;;;11.00;5.57;;;1.30;99.90;;;;;;5071715;28;20219;-59
2023/01/19 07:30:26;;;;;;;14.97;5.63;;;1.40;99.90;;;;;;5064266;28;20192;-57
2023/01/19 07:32:55;;;;;;;11.67;5.73;;;1.90;99.90;;;;;;5072388;28;20181;-57
2023/01/19 07:35:21;;;;;;;12.77;5.43;;;-0.70;99.90;;;;;;5055676;28;20181;-57
2023/01/19 07:37:47;;;;;;;10.57;4.83;;;;;;;;;;5052710;28;20192;-56
2023/01/19 07:40:12;;;;;;;12.60;4.83;;;1.40;99.90;;;;;;5052387;28;20632;-56
2023/01/19 07:42:38;;;;;;;10.50;5.10;;;1.30;99.90;;;;;;5052840;28;20180;-57
2023/01/19 07:45:04;;;;;;;9.57;4.97;;;1.30;99.90;;;;;;5052370;28;20290;-57
2023/01/19 07:47:30;;;;;;;7.27;4.07;;;1.20;99.90;;;;;;5063334;28;20289;-57
2023/01/19 07:49:55;;;;;;;29.27;7.73;;;1.10;99.90;;;;;;5072296;28;20181;-56
2023/01/19 07:52:21;;;;;;;11.57;5.10;;;1.00;99.90;;;;;;5070177;28;20713;-54
2023/01/19 07:54:49;;;;;;;17.60;4.80;;;1.10;99.90;;;;;;5071790;28;20636;-55
2023/01/19 07:57:16;;;;;;;11.20;5.10;;;1.00;99.90;;;;;;5071516;28;20587;-55
2023/01/19 07:59:42;;;;;;;15.83;5.47;;;1.10;99.90;;;;;;5071361;28;20185;-56
2023/01/19 08:02:09;;;;;;;12.90;5.57;;;1.10;99.90;;;;;;5072208;28;20537;-56
2023/01/19 08:04:35;;;;;;;13.90;5.20;;;1.10;99.90;;;;;;5072113;28;20169;-56
2023/01/19 08:07:00;;;;;;;12.23;5.30;;;1.10;99.90;;;;;;5071917;28;20216;-56
2023/01/19 08:09:26;;;;;;;13.70;5.13;;;1.20;99.90;;;;;;5071946;28;20161;-56
2023/01/19 08:11:52;;;;;;;15.03;5.40;;;1.20;99.90;;;;;;5071533;28;20210;-56
2023/01/19 08:14:17;;;;;;;10.00;5.10;;;1.00;99.90;;;;;;5071610;28;20456;-57
2023/01/19 08:16:43;;;;;;;12.37;5.17;;;1.10;99.90;;;;;;5071711;28;20642;-57
2023/01/19 08:19:08;;;;;;;19.07;5.27;;;0.80;99.90;;;;;;5071884;28;20239;-57
2023/01/19 08:21:35;;;;;;;15.57;5.17;;;1.00;99.90;;;;;;5071232;28;20190;-57
2023/01/19 08:24:00;;;;;;;12.00;5.27;;;1.00;99.90;;;;;;5071642;28;20195;-56
2023/01/19 08:26:29;;;;;;;14.90;6.00;;;0.80;99.90;;;;;;5063746;28;20200;-56
2023/01/19 08:28:57;;;;;;;16.20;5.13;;;1.10;99.90;;;;;;5071378;28;20204;-55
2023/01/19 08:31:23;;;;;;;11.13;5.57;;;1.10;99.90;;;;;;5068742;28;20259;-55
2023/01/19 08:33:49;;;;;;;13.70;6.17;;;0.70;99.90;;;;;;5071408;28;20184;-55
2023/01/19 08:36:15;;;;;;;14.30;5.73;;;1.10;99.90;;;;;;5071384;28;20164;-55
2023/01/19 08:38:46;;;;;;;14.73;5.77;;;1.00;99.90;;;;;;5070243;28;20271;-55
2023/01/19 08:41:12;;;;;;;14.13;5.90;;;1.00;99.90;;;;;;5071158;28;20222;-55
2023/01/19 08:43:38;;;;;;;13.07;5.73;;;1.10;99.90;;;;;;5071304;28;20191;-55
2023/01/19 08:46:04;;;;;;;14.77;5.83;;;1.00;99.90;;;;;;5070824;28;20168;-56
2023/01/19 08:48:30;;;;;;;15.13;5.70;;;1.10;99.90;;;;;;5070259;28;20208;-55
2023/01/19 08:50:56;;;;;;;19.03;6.00;;;;;;;;;;5070951;28;20488;-55
2023/01/19 08:53:22;;;;;;;13.57;6.97;;;1.10;99.90;;;;;;5052843;28;20662;-54
2023/01/19 08:55:49;;;;;;;17.13;6.80;;;1.20;99.90;;;;;;5070834;28;20169;-55
2023/01/19 08:58:15;;;;;;;14.83;6.23;;;1.50;99.90;;;;;;5070965;28;20192;-56
2023/01/19 09:00:41;;;;;;;15.07;6.60;;;1.30;99.90;;;;;;5070794;28;20187;-55
2023/01/19 09:03:10;;;;;;;16.07;6.30;;;4.60;99.90;;;;;;5070379;28;20188;-55
2023/01/19 09:05:37;;;;;;;18.87;7.27;;;1.50;99.90;;;;;;5070864;28;20168;-55
2023/01/19 09:08:07;;;;;;;12.97;7.40;;;1.70;99.90;;;;;;5070828;28;20207;-54
2023/01/19 09:10:36;;;;;;;21.37;8.73;;;2.10;99.90;;;;;;5070030;28;20486;-55
2023/01/19 09:13:09;;;;;;;25.53;8.90;;;2.40;99.90;;;;;;5071026;28;20256;-55
2023/01/19 09:15:36;;;;;;;17.27;7.33;;;2.80;99.90;;;;;;5070783;28;20257;-57
2023/01/19 09:18:03;;;;;;;12.80;5.23;;;3.20;99.90;;;;;;5070812;28;20183;-57
2023/01/19 09:20:34;;;;;;;10.27;4.53;;;4.00;99.90;;;;;;5063021;28;20239;-56
2023/01/19 09:23:00;;;;;;;6.67;3.73;;;4.50;99.90;;;;;;5064441;28;20176;-57
2023/01/19 09:25:26;;;;;;;9.27;3.80;;;5.00;99.90;;;;;;5069434;28;20173;-58
2023/01/19 09:27:51;;;;;;;8.37;3.60;;;5.80;99.90;;;;;;5070020;28;20686;-57
2023/01/19 09:30:18;;;;;;;10.83;3.40;;;7.20;99.90;;;;;;5070452;28;20242;-57
2023/01/19 09:32:44;;;;;;;10.63;3.60;;;6.50;99.90;;;;;;5070004;28;20659;-57
2023/01/19 09:35:10;;;;;;;10.10;3.43;;;5.90;99.90;;;;;;5070343;28;20177;-57
2023/01/19 09:37:36;;;;;;;9.27;3.57;;;5.10;99.90;;;;;;5070437;28;20173;-57
2023/01/19 09:40:03;;;;;;;10.37;3.33;;;4.70;99.90;;;;;;5070289;28;20231;-57
2023/01/19 09:42:42;;;;;;;9.07;3.57;;;4.40;99.90;;;;;;5070295;28;20245;-57
2023/01/19 09:45:37;;;;;;;12.13;3.60;;;5.50;99.90;;;;;;5070153;28;20234;-58
2023/01/19 09:48:12;;;;;;;8.73;3.50;;;5.00;99.90;;;;;;5070024;28;20258;-56
2023/01/19 09:50:39;;;;;;;10.33;3.27;;;4.80;99.90;;;;;;5069698;28;20687;-57
2023/01/19 09:53:15;;;;;;;10.43;3.57;;;5.30;99.90;;;;;;5069775;28;20626;-58
2023/01/19 09:55:42;;;;;;;17.27;4.17;;;5.20;99.90;;;;;;5064929;28;20202;-57
2023/01/19 09:58:17;;;;;;;11.60;4.57;;;4.90;99.90;;;;;;5070268;28;20165;-57
2023/01/19 10:00:49;;;;;;;12.43;5.40;;;4.80;99.90;;;;;;5070407;28;20180;-57
2023/01/19 10:03:16;;;;;;;20.03;6.10;;;4.70;99.90;;;;;;5069407;28;20165;-58
2023/01/19 10:05:46;;;;;;;14.80;6.20;;;4.40;99.90;;;;;;5070002;28;20177;-57
2023/01/19 10:08:22;;;;;;;10.93;5.27;;;4.30;99.90;;;;;;5070184;28;20277;-57
2023/01/19 10:10:53;;;;;;;15.40;6.90;;;4.20;99.90;;;;;;5070292;28;20176;-57
2023/01/19 10:13:47;;;;;;;16.23;8.37;;;4.30;99.90;;;;;;5068854;28;20265;-60
2023/01/19 10:16:48;;;;;;;15.40;7.17;;;4.50;99.90;;;;;;5045297;28;20192;-58
2023/01/19 10:19:36;;;;;;;13.07;5.93;;;4.30;99.90;;;;;;5062580;28;20236;-58
2023/01/19 10:22:20;;;;;;;12.47;5.87;;;4.20;99.90;;;;;;5061841;28;20181;-58
2023/01/19 10:24:51;;;;;;;15.97;5.73;;;4.20;99.90;;;;;;5073946;28;20654;-58
2023/01/19 10:27:21;;;;;;;16.87;6.07;;;4.40;99.90;;;;;;5073831;28;20265;-58
2023/01/19 10:29:47;;;;;;;19.27;5.60;;;1.60;99.90;;;;;;5072429;28;20172;-58
2023/01/19 10:32:24;;;;;;;13.93;5.67;;;4.60;99.90;;;;;;5073527;28;20176;-57
2023/01/19 10:34:52;;;;;;;15.60;6.00;;;4.90;99.90;;;;;;5072144;28;20185;-57
2023/01/19 10:37:27;;;;;;;17.10;5.27;;;5.00;99.90;;;;;;5072478;28;20192;-57
2023/01/19 10:40:20;;;;;;;14.60;5.60;;;5.10;99.90;;;;;;5072474;28;20174;-57
2023/01/19 10:42:46;;;;;;;11.77;5.53;;;5.40;99.90;;;;;;5065684;28;20192;-58
2023/01/19 10:45:20;;;;;;;18.30;6.03;;;5.50;99.90;;;;;;5073584;28;20534;-57
2023/01/19 10:47:48;;;;;;;18.43;5.77;;;5.70;99.90;;;;;;5073409;28;20211;-57
2023/01/19 10:50:30;;;;;;;18.47;5.30;;;5.90;99.90;;;;;;5066018;28;20483;-57
2023/01/19 10:52:58;;;;;;;16.23;5.90;;;6.20;99.90;;;;;;5073350;28;20175;-57
2023/01/19 10:55:29;;;;;;;21.93;5.87;;;6.60;99.90;;;;;;5073380;28;20165;-57
2023/01/19 10:57:56;;;;;;;13.17;4.83;;;7.90;99.90;;;;;;5073233;28;20677;-57
2023/01/19 11:00:27;;;;;;;15.93;5.70;;;9.60;99.90;;;;;;5073335;28;20246;-57
2023/01/19 11:02:53;;;;;;;11.97;4.77;;;9.60;99.90;;;;;;5071792;28;20183;-57
2023/01/19 11:05:25;;;;;;;11.93;4.80;;;9.30;99.90;;;;;;5073163;28;20172;-57
2023/01/19 11:07:51;;;;;;;12.67;5.30;;;9.70;99.90;;;;;;5073097;28;20220;-57
2023/01/19 11:10:16;;;;;;;23.13;6.10;;;11.10;99.90;;;;;;5067427;28;20184;-57
2023/01/19 11:12:45;;;;;;;18.43;7.07;;;13.00;99.90;;;;;;5071562;28;20635;-57
2023/01/19 11:15:28;;;;;;;12.73;3.63;;;12.40;99.90;;;;;;5073100;28;20177;-57
2023/01/19 11:17:54;;;;;;;11.73;2.77;;;12.10;99.90;;;;;;5073071;28;20191;-57
2023/01/19 11:20:25;;;;;;;8.13;2.00;;;12.00;99.90;;;;;;5072616;28;20691;-57
2023/01/19 11:23:05;;;;;;;6.53;2.40;;;12.10;99.90;;;;;;5072810;28;20176;-57
2023/01/19 11:25:33;;;;;;;9.13;2.20;;;12.60;99.90;;;;;;5072887;28;20177;-57
2023/01/19 11:27:59;;;;;;;8.27;2.67;;;13.30;99.90;;;;;;5072692;28;20754;-57
2023/01/19 11:30:25;;;;;;;12.07;2.78;;;12.50;99.90;;;;;;5070514;28;20219;-58
2023/01/19 11:32:52;;;;;;;9.98;2.55;;;11.50;99.90;;;;;;5072272;28;20487;-58
2023/01/19 11:35:38;;;;;;;9.60;2.58;;;12.70;99.90;;;;;;5072565;28;20169;-58
2023/01/19 11:38:26;;;;;;;14.98;2.88;;;13.50;99.90;;;;;;5072635;28;20259;-58
2023/01/19 11:40:54;;;;;;;11.77;3.00;;;13.50;99.90;;;;;;5072753;28;20168;-58
2023/01/19 11:43:21;;;;;;;23.60;9.43;;;13.50;99.90;;;;;;5072456;28;20634;-58
2023/01/19 11:45:47;;;;;;;10.48;2.42;;;16.10;99.90;;;;;;5072606;28;20642;-58
2023/01/19 11:48:38;;;;;;;8.35;2.97;;;17.30;99.90;;;;;;5072285;28;20205;-58
2023/01/19 11:51:12;;;;;;;4.30;1.70;;;17.70;99.90;;;;;;5072245;28;20635;-58
2023/01/19 11:53:39;;;;;;;14.30;6.47;;;19.00;99.90;;;;;;5072507;28;20180;-59
2023/01/19 11:56:10;;;;;;;26.75;16.38;;;20.20;99.90;;;;;;5071867;28;20184;-58
2023/01/19 11:58:39;;;;;;;19.98;12.43;;;20.80;99.90;;;;;;5072079;28;20651;-59
2023/01/19 12:01:20;;;;;;;23.33;17.08;;;21.30;99.90;;;;;;5072164;28;20173;-59
2023/01/19 12:04:05;;;;;;;9.82;3.75;;;21.10;99.90;;;;;;5071874;28;20168;-59
2023/01/19 12:06:35;;;;;;;14.40;5.28;;;21.30;99.90;;;;;;5065365;28;20670;-59
2023/01/19 12:09:24;;;;;;;11.52;6.22;;;21.80;99.90;;;;;;5072010;28;20222;-59
2023/01/19 12:11:57;;;;;;;9.38;2.58;;;22.40;99.90;;;;;;5070161;28;20208;-59
2023/01/19 12:14:30;;;;;;;30.38;21.20;;;21.40;99.90;;;;;;5063896;28;20207;-59
2023/01/19 12:16:59;;;;;;;9.40;3.08;;;22.60;99.90;;;;;;5071679;28;20175;-59
2023/01/19 12:19:38;;;;;;;7.38;2.83;;;22.30;99.90;;;;;;5071546;28;20646;-59
2023/01/19 12:22:04;;;;;;;37.22;33.38;;;21.60;99.90;;;;;;5071578;28;20282;-59
2023/01/19 12:24:40;;;;;;;41.50;33.33;;;21.50;99.90;;;;;;5071556;28;20172;-59
2023/01/19 12:27:17;;;;;;;7.60;3.63;;;21.70;99.90;;;;;;5071486;28;20219;-59
2023/01/19 12:29:44;;;;;;;6.72;2.10;;;22.40;99.90;;;;;;5071423;28;20541;-59
2023/01/19 12:32:12;;;;;;;9.98;2.45;;;23.20;99.90;;;;;;5071397;28;20666;-59
2023/01/19 12:34:41;;;;;;;10.15;2.00;;;23.50;99.90;;;;;;5053535;28;20530;-60
2023/01/19 12:37:30;;;;;;;5.70;2.28;;;22.70;99.90;;;;;;5071333;28;20168;-59
2023/01/19 12:39:59;;;;;;;10.75;1.73;;;22.60;94.40;;;;;;5071293;28;20188;-59
2023/01/19 12:42:26;;;;;;;7.68;1.95;;;22.60;93.30;;;;;;5071421;28;20189;-59
2023/01/19 12:45:06;;;;;;;4.80;1.52;;;22.70;90.60;;;;;;5070316;28;20184;-59
2023/01/19 12:47:33;;;;;;;10.15;1.40;;;22.50;74.40;;;;;;5071370;28;20310;-59
2023/01/19 12:50:05;;;;;;;8.23;1.60;;;22.70;72.10;;;;;;5069716;28;20214;-59
2023/01/19 12:52:46;;;;;;;12.90;2.28;;;22.90;63.60;;;;;;5070726;28;20756;-59
2023/01/19 12:55:12;;;;;;;6.38;1.75;;;23.10;64.10;;;;;;5070093;28;20254;-59
2023/01/19 12:57:41;;;;;;;7.28;1.80;;;22.90;47.60;;;;;;5070737;28;20615;-60
2023/01/19 13:00:26;;;;;;;8.75;3.88;;;21.30;39.10;;;;;;5068735;28;20255;-59
2023/01/19 13:03:03;;;;;;;29.30;15.10;;;22.30;42.50;;;;;;5068743;28;20168;-59
2023/01/19 13:05:37;;;;;;;14.40;8.10;;;22.10;37.50;;;;;;5052861;28;20948;-59
2023/01/19 13:08:07;;;;;;;32.88;12.75;;;22.40;35.20;;;;;;5070390;28;20204;-60
2023/01/19 13:10:51;;;;;;;14.93;7.00;;;23.30;35.50;;;;;;5070615;28;20176;-59
2023/01/19 13:13:25;;;;;;;8.27;2.10;;;22.20;24.50;;;;;;5069337;28;20212;-59